createdAt,value
2018-02-25T00:02:07.336Z,60.75
2018-02-25T00:04:33.460Z,61.39
2018-02-25T00:06:59.656Z,61.10
2018-02-25T00:09:25.833Z,60.25
2018-02-25T00:11:52.113Z,61.06
2018-02-25T00:14:18.265Z,60.62
2018-02-25T00:16:44.507Z,60.52
2018-02-25T00:19:10.649Z,60.97
2018-02-25T00:21:36.895Z,60.00
2018-02-25T00:24:03.141Z,60.09
2018-02-25T00:26:29.342Z,60.11
2018-02-25T00:28:55.482Z,59.94
2018-02-25T00:31:21.662Z,59.44
2018-02-25T00:33:47.824Z,59.96
2018-02-25T00:36:14.038Z,60.26
2018-02-25T00:38:40.202Z,59.96
2018-02-25T00:41:06.381Z,59.45
2018-02-25T00:43:32.669Z,60.31
2018-02-25T00:45:58.923Z,59.90
2018-02-25T00:48:25.089Z,59.50
2018-02-25T00:50:51.277Z,59.20
2018-02-25T00:53:17.481Z,59.34
2018-02-25T00:55:43.672Z,59.27
2018-02-25T00:58:09.859Z,58.94
2018-02-25T01:00:36.064Z,59.52
2018-02-25T01:03:02.180Z,58.92
2018-02-25T01:05:28.426Z,58.98
2018-02-25T01:07:54.586Z,59.60
2018-02-25T01:10:20.758Z,58.94
2018-02-25T01:12:46.983Z,59.16
2018-02-25T01:15:13.189Z,59.25
2018-02-25T01:17:39.353Z,59.22
2018-02-25T01:20:05.522Z,59.08
2018-02-25T01:22:31.733Z,59.27
2018-02-25T01:24:57.901Z,58.85
2018-02-25T01:27:24.079Z,59.59
2018-02-25T01:29:50.232Z,59.32
2018-02-25T01:32:16.409Z,59.38
2018-02-25T01:34:42.582Z,59.35
2018-02-25T01:37:08.795Z,59.86
2018-02-25T01:39:34.988Z,59.67
2018-02-25T01:42:01.142Z,60.37
2018-02-25T01:44:27.397Z,59.87
2018-02-25T01:46:53.612Z,59.90
2018-02-25T01:49:19.847Z,60.05
2018-02-25T01:51:46.047Z,60.29
2018-02-25T01:54:12.273Z,60.41
2018-02-25T01:56:38.451Z,60.74
2018-02-25T01:59:04.601Z,61.08
2018-02-25T02:01:30.774Z,62.29
2018-02-25T02:03:57.265Z,60.96
2018-02-25T02:06:23.515Z,61.58
2018-02-25T02:08:49.651Z,61.11
2018-02-25T02:11:15.831Z,61.58
2018-02-25T02:13:42.033Z,61.99
2018-02-25T02:16:08.292Z,61.94
2018-02-25T02:18:34.522Z,61.91
2018-02-25T02:21:00.700Z,61.54
2018-02-25T02:23:26.815Z,61.66
2018-02-25T02:25:53.015Z,61.91
2018-02-25T02:28:19.177Z,61.44
2018-02-25T02:30:45.365Z,61.49
2018-02-25T02:33:11.525Z,61.59
2018-02-25T02:35:38.595Z,61.48
2018-02-25T02:38:04.727Z,61.82
2018-02-25T02:43:06.000Z,62.03
2018-02-25T02:45:32.466Z,61.56
2018-02-25T02:47:58.631Z,61.92
2018-02-25T02:50:24.789Z,62.09
2018-02-25T02:52:50.985Z,61.79
2018-02-25T02:55:17.217Z,62.18
2018-02-25T02:57:43.393Z,61.95
2018-02-25T03:00:10.365Z,62.59
2018-02-25T03:02:36.568Z,61.78
2018-02-25T03:05:02.737Z,61.75
2018-02-25T03:07:28.954Z,61.99
2018-02-25T03:09:55.133Z,62.01
2018-02-25T03:12:21.265Z,61.96
2018-02-25T03:14:47.428Z,61.84
2018-02-25T03:17:13.651Z,62.82
2018-02-25T03:19:39.854Z,61.72
2018-02-25T03:22:06.039Z,61.84
2018-02-25T03:24:32.226Z,61.62
2018-02-25T03:26:58.432Z,61.77
2018-02-25T03:29:24.617Z,61.22
2018-02-25T03:31:50.822Z,62.10
2018-02-25T03:34:17.079Z,61.54
2018-02-25T03:36:43.302Z,61.98
2018-02-25T03:39:09.455Z,61.92
2018-02-25T03:41:35.637Z,62.46
2018-02-25T03:44:02.765Z,62.09
2018-02-25T03:46:28.996Z,62.57
2018-02-25T03:48:55.352Z,62.63
2018-02-25T03:51:21.497Z,61.87
2018-02-25T03:53:47.611Z,62.32
2018-02-25T03:56:13.823Z,62.00
2018-02-25T03:58:40.041Z,61.55
2018-02-25T04:01:06.169Z,61.81
2018-02-25T04:03:32.336Z,61.70
2018-02-25T04:05:58.497Z,62.13
2018-02-25T04:08:24.754Z,61.99
2018-02-25T04:10:50.907Z,62.07
2018-02-25T04:13:17.020Z,62.13
2018-02-25T04:15:43.294Z,61.90
2018-02-25T04:18:09.468Z,62.18
2018-02-25T04:20:35.680Z,62.30
2018-02-25T04:23:01.798Z,62.57
2018-02-25T04:25:27.994Z,61.82
2018-02-25T04:27:54.172Z,62.03
2018-02-25T04:30:20.391Z,61.67
2018-02-25T04:32:46.526Z,61.91
2018-02-25T04:35:12.720Z,61.59
2018-02-25T04:37:38.899Z,61.48
2018-02-25T04:40:05.053Z,61.11
2018-02-25T04:42:31.192Z,61.59
2018-02-25T04:44:58.308Z,61.16
2018-02-25T04:47:24.519Z,61.64
2018-02-25T04:49:51.220Z,60.74
2018-02-25T04:52:17.411Z,61.62
2018-02-25T04:54:43.544Z,61.31
2018-02-25T04:57:09.728Z,61.41
2018-02-25T04:59:35.924Z,61.63
2018-02-25T05:02:02.096Z,61.60
2018-02-25T05:04:28.271Z,61.61
2018-02-25T05:06:54.512Z,61.08
2018-02-25T05:09:20.679Z,61.73
2018-02-25T05:11:46.836Z,60.88
2018-02-25T05:14:12.992Z,60.88
2018-02-25T05:16:39.255Z,61.21
2018-02-25T05:19:05.411Z,61.31
2018-02-25T05:21:31.583Z,60.99
2018-02-25T05:23:57.743Z,61.12
2018-02-25T05:26:23.969Z,60.88
2018-02-25T05:28:50.175Z,61.51
2018-02-25T05:31:16.403Z,61.88
2018-02-25T05:33:42.538Z,61.52
2018-02-25T05:36:08.778Z,61.48
2018-02-25T05:38:34.950Z,61.98
2018-02-25T05:41:01.102Z,61.55
2018-02-25T05:43:27.307Z,61.59
2018-02-25T05:45:53.507Z,61.52
2018-02-25T05:48:19.666Z,61.66
2018-02-25T05:50:45.815Z,61.53
2018-02-25T05:53:12.613Z,61.13
2018-02-25T05:55:38.829Z,61.06
2018-02-25T05:58:05.042Z,61.38
2018-02-25T06:00:31.196Z,61.09
2018-02-25T06:02:57.450Z,61.74
2018-02-25T06:05:23.608Z,61.87
2018-02-25T06:07:50.016Z,61.59
2018-02-25T06:10:16.208Z,61.45
2018-02-25T06:12:42.429Z,61.36
2018-02-25T06:15:08.627Z,60.94
2018-02-25T06:17:34.824Z,62.31
2018-02-25T06:20:01.011Z,61.70
2018-02-25T06:22:27.482Z,61.46
2018-02-25T06:24:53.684Z,62.22
2018-02-25T06:27:19.909Z,61.71
2018-02-25T06:29:46.099Z,61.14
2018-02-25T06:32:12.338Z,61.07
2018-02-25T06:34:38.549Z,61.40
2018-02-25T06:37:04.758Z,61.27
2018-02-25T06:39:30.929Z,61.11
2018-02-25T06:41:57.147Z,61.37
2018-02-25T06:44:23.346Z,60.83
2018-02-25T06:46:50.453Z,61.58
2018-02-25T06:49:16.593Z,61.24
2018-02-25T06:51:42.742Z,61.32
2018-02-25T06:54:08.901Z,61.40
2018-02-25T06:56:35.122Z,61.09
2018-02-25T06:59:01.287Z,61.36
2018-02-25T07:01:27.508Z,61.53
2018-02-25T07:03:53.687Z,61.55
2018-02-25T07:06:19.867Z,61.71
2018-02-25T07:08:46.076Z,61.08
2018-02-25T07:11:12.241Z,61.20
2018-02-25T07:13:38.404Z,61.08
2018-02-25T07:16:04.622Z,61.38
2018-02-25T07:18:30.840Z,60.83
2018-02-25T07:20:57.047Z,60.37
2018-02-25T07:23:23.830Z,60.49
2018-02-25T07:25:50.003Z,59.93
2018-02-25T07:28:16.210Z,59.83
2018-02-25T07:30:42.384Z,59.57
2018-02-25T07:33:08.687Z,59.38
2018-02-25T07:35:34.856Z,59.52
2018-02-25T07:38:01.044Z,59.09
2018-02-25T07:40:27.262Z,58.12
2018-02-25T07:42:53.430Z,57.29
2018-02-25T07:45:19.608Z,56.52
2018-02-25T07:47:45.865Z,56.85
2018-02-25T07:50:12.030Z,56.30
2018-02-25T07:52:38.164Z,56.28
2018-02-25T07:55:04.354Z,54.83
2018-02-25T07:57:30.576Z,54.65
2018-02-25T07:59:56.736Z,54.58
2018-02-25T08:02:22.951Z,54.49
2018-02-25T08:04:49.088Z,53.01
2018-02-25T08:07:15.353Z,53.28
2018-02-25T08:09:41.511Z,52.56
2018-02-25T08:12:07.760Z,53.50
2018-02-25T08:14:33.989Z,52.34
2018-02-25T08:17:00.187Z,52.03
2018-02-25T08:19:26.373Z,52.44
2018-02-25T08:21:52.558Z,52.57
2018-02-25T08:27:22.388Z,51.41
2018-02-25T08:29:49.554Z,50.62
2018-02-25T08:32:16.710Z,49.82
2018-02-25T08:37:41.765Z,49.88
2018-02-25T08:40:29.052Z,49.70
2018-02-25T08:45:59.699Z,45.76
2018-02-25T08:48:25.941Z,42.97
2018-02-25T08:50:52.390Z,42.04
2018-02-25T08:53:22.996Z,41.69
2018-02-25T08:55:50.048Z,40.52
2018-02-25T08:58:16.285Z,39.01
2018-02-25T09:00:42.478Z,38.73
2018-02-25T09:03:08.711Z,37.35
2018-02-25T09:05:34.966Z,37.19
2018-02-25T09:08:01.184Z,37.94
2018-02-25T09:10:28.193Z,38.19
2018-02-25T09:12:54.377Z,37.29
2018-02-25T09:15:20.515Z,37.64
2018-02-25T09:17:46.733Z,37.52
2018-02-25T09:20:13.014Z,39.43
2018-02-25T09:22:39.185Z,39.88
2018-02-25T09:25:05.408Z,39.79
2018-02-25T09:27:31.660Z,40.31
2018-02-25T09:29:57.789Z,40.24
2018-02-25T09:32:24.006Z,41.71
2018-02-25T09:34:50.160Z,42.18
2018-02-25T09:37:16.402Z,42.46
2018-02-25T09:39:42.600Z,41.71
2018-02-25T09:42:08.774Z,41.87
2018-02-25T09:44:35.014Z,42.77
2018-02-25T09:47:01.381Z,41.36
2018-02-25T09:49:27.580Z,39.87
2018-02-25T09:51:53.758Z,39.99
2018-02-25T09:54:20.161Z,39.82
2018-02-25T09:56:46.344Z,40.97
2018-02-25T09:59:12.536Z,41.03
2018-02-25T10:01:38.716Z,40.57
2018-02-25T10:04:05.224Z,40.72
2018-02-25T10:06:31.416Z,41.15
2018-02-25T10:08:57.617Z,39.90
2018-02-25T10:11:23.774Z,39.96
2018-02-25T10:13:49.900Z,39.29
2018-02-25T10:16:16.188Z,40.68
2018-02-25T10:18:42.345Z,40.69
2018-02-25T10:21:08.512Z,40.58
2018-02-25T10:23:34.644Z,40.55
2018-02-25T10:26:07.883Z,38.85
2018-02-25T10:28:34.119Z,39.11
2018-02-25T10:31:00.503Z,39.42
2018-02-25T10:33:26.951Z,39.72
2018-02-25T10:35:53.234Z,40.50
2018-02-25T10:38:19.400Z,39.80
2018-02-25T10:40:45.550Z,39.46
2018-02-25T10:43:12.000Z,39.38
2018-02-25T10:45:38.229Z,39.83
2018-02-25T10:48:04.507Z,39.72
2018-02-25T10:50:30.679Z,37.86
2018-02-25T10:52:56.877Z,37.52
2018-02-25T10:55:23.138Z,37.75
2018-02-25T10:57:49.509Z,38.33
2018-02-25T11:00:21.880Z,38.16
2018-02-25T11:02:48.069Z,36.88
2018-02-25T11:05:14.295Z,37.16
2018-02-25T11:07:40.520Z,36.55
2018-02-25T11:10:06.941Z,37.53
2018-02-25T11:12:33.090Z,37.01
2018-02-25T11:14:59.262Z,38.61
2018-02-25T11:17:25.478Z,36.59
2018-02-25T11:19:51.672Z,38.13
2018-02-25T11:22:17.829Z,37.36
2018-02-25T11:24:43.993Z,36.40
2018-02-25T11:27:10.217Z,35.27
2018-02-25T11:29:36.419Z,36.57
2018-02-25T11:32:02.628Z,35.14
2018-02-25T11:34:28.868Z,35.17
2018-02-25T11:36:55.637Z,35.22
2018-02-25T11:39:21.824Z,34.06
2018-02-25T11:41:48.039Z,35.13
2018-02-25T11:44:15.182Z,34.72
2018-02-25T11:46:41.314Z,34.44
2018-02-25T11:49:07.412Z,34.11
2018-02-25T11:51:33.643Z,33.87
2018-02-25T11:53:59.908Z,34.17
2018-02-25T11:56:26.118Z,35.04
2018-02-25T11:58:52.357Z,35.63
2018-02-25T12:01:18.599Z,34.54
2018-02-25T12:03:44.753Z,33.34
2018-02-25T12:06:10.935Z,34.38
2018-02-25T12:08:37.145Z,33.35
2018-02-25T12:11:03.397Z,34.78
2018-02-25T12:13:29.563Z,35.17
2018-02-25T12:15:55.719Z,35.36
2018-02-25T12:18:22.559Z,35.54
2018-02-25T12:20:48.824Z,35.30
2018-02-25T12:23:14.961Z,32.71
2018-02-25T12:25:42.190Z,34.51
2018-02-25T12:28:08.383Z,33.67
2018-02-25T12:30:34.612Z,32.66
2018-02-25T12:33:00.889Z,33.34
2018-02-25T12:35:27.172Z,34.17
2018-02-25T12:37:53.395Z,32.68
2018-02-25T12:40:19.654Z,32.03
2018-02-25T12:42:45.856Z,32.51
2018-02-25T12:45:12.055Z,32.25
2018-02-25T12:47:38.269Z,31.59
2018-02-25T12:50:04.511Z,34.17
2018-02-25T12:52:30.690Z,32.63
2018-02-25T12:54:56.849Z,32.67
2018-02-25T12:57:23.081Z,34.56
2018-02-25T12:59:49.309Z,35.01
2018-02-25T13:02:15.510Z,33.69
2018-02-25T13:04:41.706Z,33.93
2018-02-25T13:07:07.934Z,34.50
2018-02-25T13:09:34.154Z,32.90
2018-02-25T13:12:00.397Z,33.90
2018-02-25T13:14:26.574Z,32.15
2018-02-25T13:16:52.723Z,31.81
2018-02-25T13:19:19.036Z,30.90
2018-02-25T13:21:45.438Z,30.89
2018-02-25T13:24:11.605Z,30.28
2018-02-25T13:26:37.832Z,31.79
2018-02-25T13:29:04.025Z,31.67
2018-02-25T13:31:30.273Z,31.15
2018-02-25T13:33:56.481Z,33.29
2018-02-25T13:36:22.714Z,32.72
2018-02-25T13:38:48.971Z,32.91
2018-02-25T13:41:15.239Z,32.66
2018-02-25T13:43:41.512Z,31.72
2018-02-25T13:46:07.674Z,29.09
2018-02-25T13:48:33.922Z,26.65
2018-02-25T13:51:00.158Z,25.49
2018-02-25T13:53:26.326Z,25.35
2018-02-25T13:55:52.543Z,24.61
2018-02-25T13:58:18.698Z,23.56
2018-02-25T14:00:44.892Z,23.78
2018-02-25T14:03:11.081Z,24.43
2018-02-25T14:05:38.304Z,25.20
2018-02-25T14:08:04.513Z,26.35
2018-02-25T14:10:30.795Z,26.60
2018-02-25T14:12:56.987Z,26.99
2018-02-25T14:15:23.196Z,28.73
2018-02-25T14:17:49.341Z,28.16
2018-02-25T14:20:15.557Z,28.29
2018-02-25T14:22:41.781Z,27.83
2018-02-25T14:25:07.992Z,28.04
2018-02-25T14:27:34.176Z,28.73
2018-02-25T14:30:00.394Z,29.39
2018-02-25T14:32:26.745Z,28.34
2018-02-25T14:34:52.947Z,29.85
2018-02-25T14:37:19.313Z,31.16
2018-02-25T14:39:45.466Z,32.25
2018-02-25T14:42:11.744Z,31.43
2018-02-25T14:44:39.154Z,31.00
2018-02-25T14:47:05.449Z,32.43
2018-02-25T14:49:31.646Z,33.02
2018-02-25T14:51:57.891Z,32.73
2018-02-25T14:54:24.049Z,32.78
2018-02-25T14:56:50.280Z,33.38
2018-02-25T14:59:16.431Z,31.46
2018-02-25T15:01:42.640Z,32.10
2018-02-25T15:04:08.774Z,31.27
2018-02-25T15:06:34.975Z,32.42
2018-02-25T15:09:01.191Z,32.77
2018-02-25T15:11:27.434Z,33.45
2018-02-25T15:13:53.713Z,33.60
2018-02-25T15:16:19.951Z,33.71
2018-02-25T15:18:46.137Z,34.10
2018-02-25T15:21:12.350Z,34.60
2018-02-25T15:23:38.562Z,35.12
2018-02-25T15:26:04.808Z,35.26
2018-02-25T15:28:31.015Z,34.60
2018-02-25T15:30:57.244Z,34.34
2018-02-25T15:33:23.479Z,33.80
2018-02-25T15:35:49.705Z,34.54
2018-02-25T15:38:15.883Z,35.60
2018-02-25T15:40:42.154Z,35.52
2018-02-25T15:43:08.343Z,34.37
2018-02-25T15:45:34.597Z,34.00
2018-02-25T15:48:00.820Z,34.34
2018-02-25T15:50:27.030Z,33.96
2018-02-25T15:52:53.217Z,35.28
2018-02-25T15:55:19.436Z,34.88
2018-02-25T15:57:45.641Z,35.22
2018-02-25T16:00:11.840Z,35.12
2018-02-25T16:02:38.071Z,35.26
2018-02-25T16:05:04.215Z,34.61
2018-02-25T16:07:30.448Z,35.16
2018-02-25T16:09:56.606Z,35.22
2018-02-25T16:12:22.818Z,34.97
2018-02-25T16:14:48.997Z,35.63
2018-02-25T16:17:15.149Z,37.05
2018-02-25T16:19:41.287Z,37.45
2018-02-25T16:22:07.506Z,36.84
2018-02-25T16:24:33.637Z,36.73
2018-02-25T16:26:59.866Z,38.06
2018-02-25T16:29:26.065Z,37.22
2018-02-25T16:31:52.270Z,39.07
2018-02-25T16:34:18.507Z,37.69
2018-02-25T16:36:44.701Z,38.85
2018-02-25T16:39:10.844Z,39.09
2018-02-25T16:41:37.055Z,38.77
2018-02-25T16:44:03.255Z,38.68
2018-02-25T16:46:29.424Z,38.80
2018-02-25T16:48:55.653Z,39.42
2018-02-25T16:51:21.899Z,39.87
2018-02-25T16:53:48.152Z,39.85
2018-02-25T16:56:14.394Z,40.11
2018-02-25T16:58:40.703Z,40.43
2018-02-25T17:01:06.958Z,41.18
2018-02-25T17:03:33.110Z,42.07
2018-02-25T17:05:59.237Z,41.96
2018-02-25T17:08:25.513Z,41.93
2018-02-25T17:10:51.743Z,42.41
2018-02-25T17:13:17.934Z,42.55
2018-02-25T17:15:44.136Z,42.72
2018-02-25T17:18:10.372Z,43.15
2018-02-25T17:20:36.702Z,43.76
2018-02-25T17:23:02.930Z,43.36
2018-02-25T17:25:29.148Z,43.16
2018-02-25T17:27:55.447Z,43.49
2018-02-25T17:30:21.683Z,43.35
2018-02-25T17:32:47.905Z,43.46
2018-02-25T17:35:14.133Z,43.52
2018-02-25T17:37:40.398Z,43.13
2018-02-25T17:40:06.627Z,43.83
2018-02-25T17:42:32.862Z,44.86
2018-02-25T17:44:59.092Z,43.78
2018-02-25T17:47:25.309Z,44.07
2018-02-25T17:49:51.517Z,44.15
2018-02-25T17:52:17.736Z,44.82
2018-02-25T17:54:43.959Z,44.16
2018-02-25T17:57:10.182Z,43.77
2018-02-25T17:59:36.392Z,43.94
2018-02-25T18:02:02.616Z,44.34
2018-02-25T18:04:28.801Z,43.66
2018-02-25T18:06:54.940Z,44.37
2018-02-25T18:09:21.088Z,44.51
2018-02-25T18:11:47.324Z,44.88
2018-02-25T18:14:13.606Z,45.09
2018-02-25T18:16:39.833Z,45.33
2018-02-25T18:19:06.066Z,45.43
2018-02-25T18:21:32.310Z,44.43
2018-02-25T18:23:58.495Z,45.00
2018-02-25T18:26:24.764Z,45.28
2018-02-25T18:28:51.023Z,45.71
2018-02-25T18:31:17.258Z,45.49
2018-02-25T18:33:43.408Z,45.72
2018-02-25T18:36:09.592Z,45.68
2018-02-25T18:38:35.824Z,45.90
2018-02-25T18:41:02.070Z,45.92
2018-02-25T18:43:28.219Z,46.80
2018-02-25T18:45:54.388Z,46.45
2018-02-25T18:48:20.576Z,46.84
2018-02-25T18:50:46.801Z,46.16
2018-02-25T18:53:13.048Z,45.97
2018-02-25T18:55:39.289Z,46.09
2018-02-25T18:58:05.531Z,46.81
2018-02-25T19:00:31.716Z,46.14
2018-02-25T19:02:58.009Z,46.15
2018-02-25T19:05:24.258Z,46.65
2018-02-25T19:07:50.490Z,46.04
2018-02-25T19:10:16.722Z,46.30
2018-02-25T19:12:42.960Z,46.65
2018-02-25T19:15:09.693Z,46.10
2018-02-25T19:17:35.942Z,45.92
2018-02-25T19:20:02.097Z,46.02
2018-02-25T19:22:28.358Z,46.12
2018-02-25T19:24:54.535Z,46.01
2018-02-25T19:27:20.773Z,46.30
2018-02-25T19:29:47.024Z,46.05
2018-02-25T19:32:13.226Z,45.61
2018-02-25T19:34:39.410Z,46.51
2018-02-25T19:37:11.656Z,45.56
2018-02-25T19:39:43.806Z,46.46
2018-02-25T19:42:10.973Z,46.07
2018-02-25T19:44:37.210Z,45.67
2018-02-25T19:47:03.369Z,46.51
2018-02-25T19:49:29.586Z,46.24
2018-02-25T19:51:55.866Z,46.04
2018-02-25T19:54:22.118Z,47.12
2018-02-25T19:56:48.353Z,47.53
2018-02-25T19:59:14.555Z,46.78
2018-02-25T20:01:40.771Z,47.10
2018-02-25T20:04:06.958Z,47.53
2018-02-25T20:06:33.138Z,47.59
2018-02-25T20:08:59.332Z,48.50
2018-02-25T20:11:25.594Z,48.27
2018-02-25T20:13:51.769Z,47.65
2018-02-25T20:16:17.954Z,48.20
2018-02-25T20:18:44.274Z,48.49
2018-02-25T20:21:10.462Z,47.97
2018-02-25T20:23:36.699Z,47.84
2018-02-25T20:26:02.945Z,48.28
2018-02-25T20:28:29.121Z,48.11
2018-02-25T20:30:55.271Z,49.04
2018-02-25T20:33:21.489Z,48.36
2018-02-25T20:35:47.653Z,48.47
2018-02-25T20:38:13.865Z,48.54
2018-02-25T20:40:40.061Z,49.12
2018-02-25T20:43:06.302Z,49.29
2018-02-25T20:45:32.470Z,49.43
2018-02-25T20:47:58.708Z,50.37
2018-02-25T20:50:25.502Z,49.79
2018-02-25T20:52:51.730Z,50.35
2018-02-25T20:55:17.887Z,50.52
2018-02-25T20:57:44.204Z,50.28
2018-02-25T21:00:10.442Z,50.44
2018-02-25T21:02:36.706Z,50.14
2018-02-25T21:05:02.936Z,51.50
2018-02-25T21:07:29.084Z,51.04
2018-02-25T21:09:55.308Z,51.31
2018-02-25T21:12:21.561Z,51.44
2018-02-25T21:14:47.701Z,51.82
2018-02-25T21:17:13.893Z,51.87
2018-02-25T21:19:40.038Z,52.41
2018-02-25T21:22:06.234Z,51.69
2018-02-25T21:24:32.386Z,51.35
2018-02-25T21:26:58.606Z,51.77
2018-02-25T21:29:24.808Z,51.63
2018-02-25T21:31:51.033Z,51.90
2018-02-25T21:34:17.177Z,51.69
2018-02-25T21:36:43.399Z,51.74
2018-02-25T21:39:09.581Z,52.51
2018-02-25T21:41:35.751Z,52.30
2018-02-25T21:44:01.951Z,52.32
2018-02-25T21:46:28.067Z,52.34
2018-02-25T21:48:54.240Z,52.71
2018-02-25T21:51:20.479Z,52.41
2018-02-25T21:53:46.705Z,52.33
2018-02-25T21:56:19.102Z,53.10
2018-02-25T21:58:51.359Z,52.89
2018-02-25T22:01:23.482Z,52.65
2018-02-25T22:03:55.922Z,52.72
2018-02-25T22:06:22.076Z,53.19
2018-02-25T22:08:48.284Z,53.11
2018-02-25T22:11:14.464Z,53.35
2018-02-25T22:13:40.709Z,53.45
2018-02-25T22:16:06.842Z,53.22
2018-02-25T22:18:33.063Z,54.04
2018-02-25T22:20:59.246Z,53.83
2018-02-25T22:23:25.472Z,53.63
2018-02-25T22:25:51.648Z,54.03
2018-02-25T22:28:17.852Z,54.16
2018-02-25T22:30:44.024Z,54.41
2018-02-25T22:33:10.208Z,54.62
2018-02-25T22:35:36.396Z,54.36
2018-02-25T22:38:02.567Z,54.55
2018-02-25T22:40:28.673Z,54.59
2018-02-25T22:42:54.922Z,54.76
2018-02-25T22:45:21.197Z,54.71
2018-02-25T22:47:47.352Z,54.76
2018-02-25T22:50:13.506Z,55.11
2018-02-25T22:52:39.713Z,55.03
2018-02-25T22:55:05.875Z,54.95
2018-02-25T22:57:32.062Z,55.17
2018-02-25T22:59:58.217Z,55.15
2018-02-25T23:02:24.496Z,55.95
2018-02-25T23:04:50.623Z,56.13
2018-02-25T23:07:16.799Z,56.55
2018-02-25T23:09:42.940Z,56.96
2018-02-25T23:12:09.166Z,56.49
2018-02-25T23:14:35.369Z,56.93
2018-02-25T23:17:01.534Z,56.69
2018-02-25T23:19:27.693Z,56.97
2018-02-25T23:21:53.880Z,56.93
2018-02-25T23:24:20.056Z,57.48
2018-02-25T23:26:46.257Z,57.51
2018-02-25T23:29:12.446Z,57.96
2018-02-25T23:31:38.584Z,58.09
2018-02-25T23:34:04.774Z,58.35
2018-02-25T23:36:30.944Z,58.56
2018-02-25T23:38:57.079Z,58.89
2018-02-25T23:41:23.275Z,58.85
2018-02-25T23:43:49.468Z,59.36
2018-02-25T23:46:15.634Z,59.61
2018-02-25T23:48:41.801Z,59.92
2018-02-25T23:51:08.235Z,60.00
2018-02-25T23:53:34.427Z,60.13
2018-02-25T23:56:00.643Z,60.11
2018-02-25T23:58:26.760Z,60.20
